createdAt,value
2022-09-07T00:02:06.819Z,12.57
2022-09-07T00:04:34.266Z,10.40
2022-09-07T00:07:01.204Z,12.00
2022-09-07T00:09:29.132Z,12.83
2022-09-07T00:11:56.159Z,13.33
2022-09-07T00:14:23.046Z,12.77
2022-09-07T00:16:49.945Z,12.60
2022-09-07T00:19:17.056Z,12.63
2022-09-07T00:21:44.012Z,11.80
2022-09-07T00:24:10.962Z,12.87
2022-09-07T00:26:38.262Z,12.90
2022-09-07T00:29:06.422Z,12.60
2022-09-07T00:31:33.819Z,13.27
2022-09-07T00:34:02.344Z,11.87
2022-09-07T00:36:29.849Z,14.70
2022-09-07T00:38:56.839Z,11.57
2022-09-07T00:41:24.487Z,12.53
2022-09-07T00:43:56.061Z,11.70
2022-09-07T00:46:24.670Z,12.93
2022-09-07T00:49:09.056Z,12.73
2022-09-07T00:52:03.523Z,13.73
2022-09-07T00:54:39.174Z,12.67
2022-09-07T00:57:06.959Z,11.70
2022-09-07T00:59:39.465Z,13.37
2022-09-07T01:02:06.692Z,13.23
2022-09-07T01:04:35.095Z,13.67
2022-09-07T01:07:03.293Z,13.00
2022-09-07T01:09:31.047Z,11.30
2022-09-07T01:12:00.897Z,13.37
2022-09-07T01:14:34.911Z,12.60
2022-09-07T01:17:19.181Z,13.17
2022-09-07T01:20:15.430Z,12.87
2022-09-07T01:22:56.113Z,12.53
2022-09-07T01:25:50.728Z,14.07
2022-09-07T01:28:17.571Z,13.20
2022-09-07T01:30:56.101Z,13.07
2022-09-07T01:33:45.098Z,11.90
2022-09-07T01:36:18.962Z,13.25
2022-09-07T01:38:53.511Z,12.90
2022-09-07T01:41:39.182Z,12.13
2022-09-07T01:44:06.032Z,13.40
2022-09-07T01:46:42.375Z,13.47
2022-09-07T01:49:18.040Z,14.10
2022-09-07T01:51:48.568Z,14.27
2022-09-07T01:54:22.551Z,14.33
2022-09-07T01:56:56.300Z,14.00
2022-09-07T01:59:38.614Z,11.63
2022-09-07T02:02:41.271Z,11.90
2022-09-07T02:05:14.207Z,13.93
2022-09-07T02:08:01.346Z,13.80
2022-09-07T02:10:41.824Z,13.50
2022-09-07T02:13:35.204Z,13.03
2022-09-07T02:16:16.556Z,13.53
2022-09-07T02:18:46.933Z,13.23
2022-09-07T02:21:19.982Z,12.13
2022-09-07T02:23:52.019Z,11.93
2022-09-07T02:26:22.492Z,13.43
2022-09-07T02:28:50.721Z,13.80
2022-09-07T02:31:18.258Z,13.63
2022-09-07T02:33:45.339Z,13.47
2022-09-07T02:36:15.512Z,12.50
2022-09-07T02:38:42.442Z,13.37
2022-09-07T02:41:28.258Z,12.97
2022-09-07T02:43:55.591Z,13.70
2022-09-07T02:46:36.547Z,12.70
2022-09-07T02:49:32.272Z,13.03
2022-09-07T02:52:05.044Z,12.33
2022-09-07T02:54:44.189Z,12.50
2022-09-07T02:57:38.931Z,13.10
2022-09-07T03:00:13.622Z,12.97
2022-09-07T03:02:55.717Z,13.67
2022-09-07T03:05:44.637Z,12.60
2022-09-07T03:08:20.532Z,13.30
2022-09-07T03:10:49.043Z,13.70
2022-09-07T03:13:34.453Z,12.33
2022-09-07T03:16:01.873Z,12.63
2022-09-07T03:18:29.373Z,11.40
2022-09-07T03:20:56.449Z,12.53
2022-09-07T03:23:23.886Z,12.47
2022-09-07T03:25:51.178Z,12.80
2022-09-07T03:28:18.212Z,13.97
2022-09-07T03:30:47.588Z,13.90
2022-09-07T03:35:46.000Z,11.43
2022-09-07T03:38:13.398Z,13.25
2022-09-07T03:40:40.426Z,11.47
2022-09-07T03:43:07.305Z,11.87
2022-09-07T03:45:34.541Z,12.40
2022-09-07T03:48:01.563Z,14.10
2022-09-07T03:50:29.262Z,14.23
2022-09-07T03:52:56.470Z,12.97
2022-09-07T03:55:23.439Z,10.73
2022-09-07T03:57:50.280Z,13.13
2022-09-07T04:00:17.510Z,12.13
2022-09-07T04:02:44.371Z,12.90
2022-09-07T04:05:11.717Z,13.13
2022-09-07T04:07:38.893Z,12.00
2022-09-07T04:10:06.061Z,13.23
2022-09-07T04:12:32.921Z,12.30
2022-09-07T04:15:00.039Z,11.73
2022-09-07T04:17:26.917Z,12.30
2022-09-07T04:19:53.739Z,12.60
2022-09-07T04:22:20.831Z,11.47
2022-09-07T04:24:47.719Z,12.00
2022-09-07T04:27:14.551Z,12.50
2022-09-07T04:29:41.624Z,11.77
2022-09-07T04:32:12.362Z,13.23
2022-09-07T04:34:42.207Z,11.43
2022-09-07T04:37:09.061Z,12.43
2022-09-07T04:39:35.944Z,11.73
2022-09-07T04:42:03.111Z,12.27
2022-09-07T04:44:30.004Z,11.67
2022-09-07T04:46:56.887Z,12.77
2022-09-07T04:49:24.047Z,11.33
2022-09-07T04:51:52.139Z,10.80
2022-09-07T04:54:19.036Z,11.43
2022-09-07T04:56:46.165Z,11.67
2022-09-07T04:59:13.042Z,10.40
2022-09-07T05:01:40.173Z,10.40
2022-09-07T05:04:07.312Z,10.53
2022-09-07T05:06:34.697Z,10.77
2022-09-07T05:09:01.584Z,9.77
2022-09-07T05:11:30.022Z,9.60
2022-09-07T05:14:01.859Z,10.45
2022-09-07T05:16:29.760Z,9.82
2022-09-07T05:18:59.809Z,10.45
2022-09-07T05:21:29.863Z,10.63
2022-09-07T05:23:58.279Z,10.50
2022-09-07T05:26:28.375Z,10.15
2022-09-07T05:31:43.036Z,11.68
2022-09-07T05:36:57.877Z,10.13
2022-09-07T05:39:24.900Z,9.27
2022-09-07T05:41:51.803Z,10.73
2022-09-07T05:47:06.197Z,10.23
2022-09-07T05:49:33.420Z,9.02
2022-09-07T05:52:00.390Z,10.82
2022-09-07T05:54:27.453Z,10.10
2022-09-07T05:56:54.509Z,11.40
2022-09-07T05:59:21.354Z,10.43
2022-09-07T06:01:48.289Z,9.90
2022-09-07T06:04:15.383Z,10.32
2022-09-07T06:06:47.841Z,9.85
2022-09-07T06:09:30.349Z,9.85
2022-09-07T06:11:57.459Z,10.43
2022-09-07T06:14:25.085Z,11.55
2022-09-07T06:16:52.205Z,9.00
2022-09-07T06:19:19.128Z,8.38
2022-09-07T06:21:46.002Z,8.93
2022-09-07T06:24:13.212Z,8.20
2022-09-07T06:26:40.066Z,8.40
2022-09-07T06:29:06.983Z,9.75
2022-09-07T06:31:34.567Z,9.77
2022-09-07T06:34:01.671Z,10.70
2022-09-07T06:36:29.168Z,9.05
2022-09-07T06:38:59.148Z,8.80
2022-09-07T06:44:16.081Z,8.57
2022-09-07T06:49:30.280Z,9.63
2022-09-07T06:51:57.200Z,8.63
2022-09-07T06:57:11.182Z,7.90
2022-09-07T06:59:38.918Z,8.02
2022-09-07T07:02:06.525Z,7.93
2022-09-07T07:04:39.394Z,8.93
2022-09-07T07:07:09.458Z,9.38
2022-09-07T07:09:36.737Z,10.00
2022-09-07T07:12:04.010Z,10.45
2022-09-07T07:14:33.774Z,10.65
2022-09-07T07:17:02.847Z,10.57
2022-09-07T07:19:29.743Z,10.00
2022-09-07T07:24:43.713Z,10.73
2022-09-07T07:27:10.577Z,7.88
2022-09-07T07:29:37.431Z,9.05
2022-09-07T07:32:04.584Z,6.95
2022-09-07T07:34:31.566Z,7.40
2022-09-07T07:36:58.513Z,7.32
2022-09-07T07:42:12.591Z,6.88
2022-09-07T07:44:39.676Z,6.95
2022-09-07T07:47:06.693Z,6.50
2022-09-07T07:49:33.868Z,6.50
2022-09-07T07:54:48.247Z,7.13
2022-09-07T07:57:17.009Z,8.02
2022-09-07T07:59:43.869Z,38.22
2022-09-07T08:02:15.867Z,17.23
2022-09-07T08:04:43.234Z,12.90
2022-09-07T08:07:12.175Z,11.38
2022-09-07T08:09:42.285Z,8.02
2022-09-07T08:12:12.352Z,9.38
2022-09-07T08:14:43.443Z,7.57
2022-09-07T08:17:12.317Z,6.38
2022-09-07T08:19:39.771Z,10.68
2022-09-07T08:22:07.967Z,9.15
2022-09-07T08:24:35.749Z,9.00
2022-09-07T08:27:02.873Z,6.60
2022-09-07T08:29:33.526Z,6.63
2022-09-07T08:32:06.865Z,7.25
2022-09-07T08:34:36.281Z,6.60
2022-09-07T08:37:04.081Z,6.55
2022-09-07T08:39:31.277Z,7.50
2022-09-07T08:42:19.173Z,7.78
2022-09-07T08:44:54.455Z,6.55
2022-09-07T08:47:27.986Z,6.45
2022-09-07T08:50:28.950Z,7.00
2022-09-07T08:53:08.461Z,6.72
2022-09-07T08:55:53.158Z,6.30
2022-09-07T08:58:48.123Z,6.55
2022-09-07T09:01:33.758Z,8.13
2022-09-07T09:04:18.005Z,6.70
2022-09-07T09:07:40.041Z,5.90
2022-09-07T09:10:13.881Z,5.95
2022-09-07T09:12:58.454Z,6.68
2022-09-07T09:15:32.323Z,6.10
2022-09-07T09:18:27.351Z,5.38
2022-09-07T09:20:56.881Z,5.47
2022-09-07T09:23:27.259Z,5.82
2022-09-07T09:26:01.392Z,5.75
2022-09-07T09:28:31.747Z,4.88
2022-09-07T09:30:59.475Z,5.80
2022-09-07T09:33:29.127Z,4.85
2022-09-07T09:36:00.231Z,5.32
2022-09-07T09:38:40.801Z,6.05
2022-09-07T09:41:10.599Z,6.40
2022-09-07T09:43:52.280Z,6.10
2022-09-07T09:46:27.412Z,6.88
2022-09-07T09:49:00.899Z,6.22
2022-09-07T09:54:53.894Z,5.63
2022-09-07T09:59:04.864Z,5.38
2022-09-07T10:00:35.343Z,5.40
2022-09-07T10:06:04.279Z,6.15
2022-09-07T10:08:33.428Z,5.70
2022-09-07T10:11:04.669Z,4.65
2022-09-07T10:13:41.983Z,4.85
2022-09-07T10:16:11.659Z,4.50
2022-09-07T10:18:41.898Z,6.18
2022-09-07T10:21:34.914Z,4.45
2022-09-07T10:24:04.945Z,5.00
2022-09-07T10:26:34.623Z,4.75
2022-09-07T10:29:16.806Z,4.95
2022-09-07T10:31:56.976Z,4.75
2022-09-07T10:34:38.978Z,4.90
2022-09-07T10:37:11.117Z,4.80
2022-09-07T10:39:44.012Z,4.55
2022-09-07T10:42:31.778Z,4.25
2022-09-07T10:44:58.516Z,4.65
2022-09-07T10:47:46.893Z,5.13
2022-09-07T10:50:42.898Z,4.10
2022-09-07T10:53:41.869Z,3.97
2022-09-07T10:56:11.993Z,4.57
2022-09-07T10:59:03.585Z,4.32
2022-09-07T11:01:42.795Z,4.65
2022-09-07T11:04:12.904Z,4.50
2022-09-07T11:06:41.851Z,4.30
2022-09-07T11:09:18.525Z,4.30
2022-09-07T11:12:09.938Z,4.25
2022-09-07T11:15:07.076Z,4.40
2022-09-07T11:17:41.678Z,3.78
2022-09-07T11:20:35.697Z,4.13
2022-09-07T11:23:11.826Z,4.13
2022-09-07T11:25:59.064Z,4.30
2022-09-07T11:31:45.180Z,3.47
2022-09-07T11:34:24.723Z,3.90
2022-09-07T11:37:09.453Z,4.20
2022-09-07T11:39:45.062Z,3.95
2022-09-07T11:45:29.714Z,3.97
2022-09-07T11:48:04.885Z,4.32
2022-09-07T11:50:39.480Z,4.40
2022-09-07T11:53:18.322Z,3.63
2022-09-07T11:55:49.901Z,3.40
2022-09-07T11:58:37.960Z,3.58
2022-09-07T12:01:48.197Z,3.80
2022-09-07T12:04:45.844Z,3.70
2022-09-07T12:07:38.082Z,3.88
2022-09-07T12:10:26.697Z,4.10
2022-09-07T12:13:24.375Z,3.85
2022-09-07T12:16:15.458Z,3.25
2022-09-07T12:19:13.707Z,3.35
2022-09-07T12:21:43.932Z,3.58
2022-09-07T12:24:35.696Z,3.67
2022-09-07T12:27:10.547Z,3.83
2022-09-07T12:29:45.078Z,3.65
2022-09-07T12:35:00.835Z,3.40
2022-09-07T12:37:27.707Z,3.17
2022-09-07T12:40:28.715Z,3.65
2022-09-07T12:43:14.158Z,3.70
2022-09-07T12:45:40.972Z,3.80
2022-09-07T12:48:16.978Z,3.58
2022-09-07T12:51:00.507Z,3.55
2022-09-07T12:53:46.020Z,3.42
2022-09-07T12:56:34.511Z,3.70
2022-09-07T13:02:28.506Z,4.13
2022-09-07T13:08:01.721Z,3.63
2022-09-07T13:10:37.083Z,3.63
2022-09-07T13:13:07.031Z,3.50
2022-09-07T13:15:40.689Z,3.70
2022-09-07T13:18:34.517Z,3.78
2022-09-07T13:21:07.194Z,3.67
2022-09-07T13:23:39.093Z,3.72
2022-09-07T13:26:09.524Z,3.90
2022-09-07T13:28:40.165Z,4.28
2022-09-07T13:31:15.987Z,3.80
2022-09-07T13:33:51.277Z,4.10
2022-09-07T13:36:37.615Z,3.53
2022-09-07T13:39:12.799Z,3.60
2022-09-07T13:42:00.315Z,3.45
2022-09-07T13:44:33.602Z,3.40
2022-09-07T13:47:25.711Z,4.00
2022-09-07T13:50:05.558Z,3.63
2022-09-07T13:52:42.341Z,3.83
2022-09-07T13:55:34.460Z,3.42
2022-09-07T13:58:19.820Z,3.75
2022-09-07T14:00:54.472Z,3.75
2022-09-07T14:03:24.096Z,4.28
2022-09-07T14:06:27.414Z,9.20
2022-09-07T14:08:58.064Z,5.18
2022-09-07T14:11:29.554Z,3.40
2022-09-07T14:14:17.989Z,3.35
2022-09-07T14:17:00.317Z,3.65
2022-09-07T14:19:42.887Z,3.60
2022-09-07T14:22:16.643Z,3.50
2022-09-07T14:24:51.587Z,4.38
2022-09-07T14:27:32.877Z,3.95
2022-09-07T14:30:28.049Z,3.22
2022-09-07T14:32:58.224Z,4.28
2022-09-07T14:35:28.494Z,4.15
2022-09-07T14:38:03.397Z,3.58
2022-09-07T14:40:30.648Z,3.60
2022-09-07T14:42:58.253Z,4.32
2022-09-07T14:45:39.735Z,4.90
2022-09-07T14:48:13.102Z,6.40
2022-09-07T14:50:46.830Z,4.70
2022-09-07T14:53:34.634Z,4.28
2022-09-07T14:56:08.321Z,5.72
2022-09-07T14:58:35.455Z,3.38
2022-09-07T15:04:01.987Z,4.00
2022-09-07T15:09:35.004Z,4.03
2022-09-07T15:12:27.187Z,4.05
2022-09-07T15:15:37.641Z,6.22
2022-09-07T15:18:42.422Z,5.20
2022-09-07T15:21:09.604Z,4.82
2022-09-07T15:23:36.362Z,4.65
2022-09-07T15:26:03.616Z,4.45
2022-09-07T15:34:15.996Z,4.55
2022-09-07T15:36:53.591Z,4.90
2022-09-07T15:39:25.049Z,4.40
2022-09-07T15:41:52.344Z,4.63
2022-09-07T15:44:24.353Z,4.90
2022-09-07T15:49:39.550Z,4.20
2022-09-07T15:52:09.456Z,4.35
2022-09-07T15:54:39.613Z,33.53
2022-09-07T15:59:54.005Z,4.60
2022-09-07T16:05:08.813Z,4.13
2022-09-07T16:10:22.860Z,4.03
2022-09-07T16:13:10.901Z,4.75
2022-09-07T16:15:45.117Z,4.40
2022-09-07T16:18:16.753Z,4.68
2022-09-07T16:20:45.060Z,3.88
2022-09-07T16:23:15.316Z,7.22
2022-09-07T16:25:54.181Z,9.52
2022-09-07T16:28:21.130Z,11.02
2022-09-07T16:30:48.136Z,8.98
2022-09-07T16:33:15.339Z,8.98
2022-09-07T16:35:42.445Z,10.77
2022-09-07T16:40:56.579Z,8.23
2022-09-07T16:43:23.331Z,8.38
2022-09-07T16:46:03.063Z,12.32
2022-09-07T16:48:35.363Z,10.15
2022-09-07T16:51:03.572Z,12.25
2022-09-07T16:53:32.622Z,34.55
2022-09-07T16:56:10.944Z,32.95
2022-09-07T16:58:45.810Z,30.52
2022-09-07T17:01:18.554Z,30.20
2022-09-07T17:03:46.139Z,31.15
2022-09-07T17:06:14.293Z,36.47
2022-09-07T17:08:42.346Z,23.20
2022-09-07T17:11:11.807Z,27.50
2022-09-07T17:13:40.772Z,32.85
2022-09-07T17:16:10.670Z,32.10
2022-09-07T17:21:28.366Z,40.10
2022-09-07T17:23:55.946Z,44.65
2022-09-07T17:26:26.709Z,66.18
2022-09-07T17:29:00.405Z,71.68
2022-09-07T17:34:17.601Z,71.15
2022-09-07T17:36:44.592Z,67.15
2022-09-07T17:39:16.454Z,80.68
2022-09-07T17:41:44.845Z,84.55
2022-09-07T17:44:12.021Z,90.22
2022-09-07T17:46:38.891Z,121.22
2022-09-07T17:49:10.372Z,131.27
2022-09-07T17:51:37.320Z,100.22
2022-09-07T17:54:10.880Z,73.88
2022-09-07T17:56:39.464Z,78.50
2022-09-07T18:01:54.219Z,58.67
2022-09-07T18:04:22.080Z,49.22
2022-09-07T18:06:49.011Z,46.60
2022-09-07T18:09:16.293Z,40.90
2022-09-07T18:11:45.989Z,36.85
2022-09-07T18:14:14.846Z,35.60
2022-09-07T18:16:43.680Z,32.70
2022-09-07T18:19:11.808Z,32.67
2022-09-07T18:21:40.911Z,33.13
2022-09-07T18:24:20.248Z,29.95
2022-09-07T18:26:50.595Z,27.48
2022-09-07T18:29:33.047Z,45.42
2022-09-07T18:32:08.190Z,33.13
2022-09-07T18:34:37.307Z,28.17
2022-09-07T18:37:04.734Z,26.05
2022-09-07T18:39:32.385Z,29.45
2022-09-07T18:41:59.489Z,28.85
2022-09-07T18:47:21.663Z,30.05
2022-09-07T18:49:50.174Z,27.48
2022-09-07T18:55:07.087Z,27.92
2022-09-07T18:57:35.028Z,30.77
2022-09-07T19:00:05.062Z,33.15
2022-09-07T19:02:31.916Z,32.70
2022-09-07T19:07:45.743Z,33.42
2022-09-07T19:10:14.491Z,33.17
2022-09-07T19:12:45.505Z,34.03
2022-09-07T19:15:13.344Z,32.78
2022-09-07T19:17:40.426Z,30.98
2022-09-07T19:20:07.856Z,34.65
2022-09-07T19:22:34.920Z,33.00
2022-09-07T19:25:01.699Z,28.20
2022-09-07T19:27:29.251Z,25.45
2022-09-07T19:29:56.254Z,28.00
2022-09-07T19:32:23.188Z,37.53
2022-09-07T19:34:54.538Z,58.45
2022-09-07T19:37:26.006Z,62.85
2022-09-07T19:39:55.266Z,65.53
2022-09-07T19:44:51.158Z,54.88
2022-09-07T19:47:18.786Z,62.22
2022-09-07T19:49:45.924Z,66.00
2022-09-07T19:52:12.839Z,65.88
2022-09-07T19:54:40.540Z,77.75
2022-09-07T19:57:07.489Z,87.47
2022-09-07T19:59:34.248Z,42.20
2022-09-07T20:02:01.103Z,40.80
2022-09-07T20:04:28.325Z,44.92
2022-09-07T20:06:55.226Z,38.92
2022-09-07T20:09:22.028Z,33.72
2022-09-07T20:11:49.450Z,32.28
2022-09-07T20:14:16.907Z,27.17
2022-09-07T20:16:44.119Z,22.35
2022-09-07T20:19:14.937Z,21.73
2022-09-07T20:21:42.909Z,18.17
2022-09-07T20:24:14.685Z,18.65
2022-09-07T20:26:41.710Z,18.60
2022-09-07T20:29:26.926Z,15.43
2022-09-07T20:31:57.074Z,16.98
2022-09-07T20:34:24.021Z,17.00
2022-09-07T20:36:51.327Z,16.50
2022-09-07T20:39:19.319Z,16.42
2022-09-07T20:41:46.539Z,17.15
2022-09-07T20:44:14.297Z,20.80
2022-09-07T20:46:41.509Z,20.20
2022-09-07T20:49:08.519Z,17.55
2022-09-07T20:51:35.407Z,20.63
2022-09-07T20:54:02.456Z,21.15
2022-09-07T20:56:29.381Z,21.38
2022-09-07T20:59:01.151Z,21.60
2022-09-07T21:01:29.795Z,21.42
2022-09-07T21:03:58.500Z,21.40
2022-09-07T21:06:27.332Z,20.30
2022-09-07T21:08:55.271Z,21.55
2022-09-07T21:11:25.610Z,20.38
2022-09-07T21:14:17.686Z,20.30
2022-09-07T21:16:44.623Z,19.95
2022-09-07T21:19:11.443Z,18.48
2022-09-07T21:21:41.018Z,17.98
2022-09-07T21:24:22.175Z,17.90
2022-09-07T21:26:50.360Z,17.90
2022-09-07T21:29:18.811Z,17.63
2022-09-07T21:31:46.144Z,17.20
2022-09-07T21:34:13.735Z,16.40
2022-09-07T21:36:40.786Z,16.40
2022-09-07T21:39:12.467Z,16.98
2022-09-07T21:41:42.114Z,18.45
2022-09-07T21:44:12.718Z,18.30
2022-09-07T21:46:39.908Z,19.35
2022-09-07T21:49:06.978Z,16.92
2022-09-07T21:51:33.874Z,17.55
2022-09-07T21:54:01.464Z,17.58
2022-09-07T21:56:31.191Z,17.23
2022-09-07T21:58:59.996Z,19.35
2022-09-07T22:01:28.698Z,19.25
2022-09-07T22:03:58.606Z,17.70
2022-09-07T22:06:27.688Z,18.52
2022-09-07T22:08:54.845Z,17.88
2022-09-07T22:11:23.460Z,18.05
2022-09-07T22:13:55.585Z,17.63
2022-09-07T22:16:23.686Z,18.67
2022-09-07T22:18:50.744Z,19.17
2022-09-07T22:21:20.428Z,18.90
2022-09-07T22:23:50.438Z,19.13
2022-09-07T22:26:22.331Z,19.70
2022-09-07T22:28:49.539Z,19.27
2022-09-07T22:31:19.255Z,18.60
2022-09-07T22:33:47.925Z,19.35
2022-09-07T22:36:19.435Z,18.38
2022-09-07T22:38:48.746Z,18.02
2022-09-07T22:43:44.913Z,18.13
2022-09-07T22:46:12.834Z,20.80
2022-09-07T22:48:40.715Z,19.80
2022-09-07T22:51:08.878Z,20.70
2022-09-07T22:53:37.664Z,20.03
2022-09-07T22:56:10.599Z,18.67
2022-09-07T22:58:38.352Z,18.45
2022-09-07T23:01:06.140Z,17.52
2022-09-07T23:03:34.811Z,18.13
2022-09-07T23:06:02.786Z,16.77
2022-09-07T23:08:30.050Z,18.15
2022-09-07T23:11:04.211Z,18.90
2022-09-07T23:13:33.014Z,18.10
2022-09-07T23:16:07.155Z,19.45
2022-09-07T23:18:34.857Z,19.13
2022-09-07T23:21:02.249Z,17.97
2022-09-07T23:23:29.705Z,17.30
2022-09-07T23:25:56.971Z,19.10
2022-09-07T23:28:23.780Z,17.77
2022-09-07T23:30:51.305Z,19.03
2022-09-07T23:33:18.660Z,17.20
2022-09-07T23:35:59.881Z,16.77
2022-09-07T23:38:27.876Z,16.90
2022-09-07T23:40:55.872Z,18.57
2022-09-07T23:43:23.379Z,17.97
2022-09-07T23:45:50.828Z,19.90
2022-09-07T23:48:17.653Z,17.43
2022-09-07T23:50:45.595Z,17.37
2022-09-07T23:53:13.005Z,17.97
2022-09-07T23:55:40.605Z,18.60
2022-09-07T23:58:08.838Z,18.27
